Time;durP1;ratioP1;P1;durP2;ratioP2;P2;SDS_P1;SDS_P2;PMS_P1;PMS_P2;Temp;Humidity;BMP_temperature;BMP_pressure;BME280_temperature;BME280_humidity;BME280_pressure;Samples;Min_cycle;Max_cycle;Signal;HPM_P1;HPM_P2
2022/10/24 00:00:07;;;;;;;6.57;2.80;;;;;;;13.35;100.00;102064.06;2056950;28;20676;-59
2022/10/24 00:01:12;;;;;;;5.67;3.10;;;;;;;13.36;100.00;102067.59;2055817;28;20192;-60
2022/10/24 00:02:13;;;;;;;6.20;2.67;;;;;;;13.34;100.00;102062.47;2056753;28;20463;-60
2022/10/24 00:03:14;;;;;;;7.47;2.90;;;;;;;13.32;100.00;102064.88;2056483;28;21031;-60
2022/10/24 00:04:14;;;;;;;7.23;3.23;;;;;;;13.30;100.00;102067.28;2056464;28;20225;-59
2022/10/24 00:05:15;;;;;;;5.40;2.60;;;;;;;13.30;100.00;102060.94;2055143;28;20433;-60
2022/10/24 00:06:17;;;;;;;6.00;2.87;;;;;;;13.30;100.00;102066.50;2056570;28;20201;-60
2022/10/24 00:07:17;;;;;;;6.27;2.77;;;;;;;13.26;100.00;102065.75;2057003;28;20202;-59
2022/10/24 00:08:18;;;;;;;4.30;2.70;;;;;;;13.26;100.00;102074.09;2056154;28;20454;-59
2022/10/24 00:09:18;;;;;;;6.97;3.17;;;;;;;13.26;100.00;102060.16;2056636;28;20592;-60
2022/10/24 00:10:19;;;;;;;4.77;2.60;;;;;;;12.78;100.00;101992.72;2056490;28;20200;-60
2022/10/24 00:11:23;;;;;;;4.33;2.80;;;;;;;13.25;100.00;102066.94;2055800;28;20595;-60
2022/10/24 00:12:24;;;;;;;5.97;2.90;;;;;;;13.23;100.00;102056.22;2056498;28;20195;-59
2022/10/24 00:13:24;;;;;;;10.90;3.23;;;;;;;12.38;100.00;101918.47;2055995;28;20423;-59
2022/10/24 00:14:25;;;;;;;6.07;2.93;;;;;;;13.18;100.00;102062.28;2056790;28;20188;-60
2022/10/24 00:15:25;;;;;;;8.13;3.50;;;;;;;13.16;100.00;102056.31;2056611;28;20196;-60
2022/10/24 00:16:27;;;;;;;8.43;3.60;;;;;;;12.88;100.00;102011.31;2056279;28;20201;-60
2022/10/24 00:17:27;;;;;;;10.47;3.90;;;;;;;13.16;100.00;102059.09;2056499;28;20192;-60
2022/10/24 00:18:28;;;;;;;6.07;2.90;;;;;;;13.17;100.00;102059.91;2056293;28;21002;-59
2022/10/24 00:19:29;;;;;;;7.50;3.03;;;;;;;13.15;100.00;102057.53;2056412;28;20326;-60
2022/10/24 00:20:29;;;;;;;9.70;3.67;;;;;;;13.14;100.00;102061.53;2056316;28;20199;-60
2022/10/24 00:21:29;;;;;;;15.43;3.70;;;;;;;13.02;100.00;102045.34;2056397;28;20242;-59
2022/10/24 00:22:30;;;;;;;11.37;3.70;;;;;;;13.13;100.00;102059.16;2056359;28;20247;-60
2022/10/24 00:23:31;;;;;;;10.63;3.50;;;;;;;12.75;100.00;101997.13;2056218;28;20207;-60
2022/10/24 00:24:31;;;;;;;14.23;4.13;;;;;;;13.10;100.00;102059.97;2055677;28;20675;-59
2022/10/24 00:25:32;;;;;;;9.97;3.57;;;;;;;13.11;100.00;102058.78;2055661;28;20728;-60
2022/10/24 00:26:34;;;;;;;8.30;3.77;;;;;;;13.07;100.00;102061.59;2056376;28;20201;-60
2022/10/24 00:27:35;;;;;;;7.10;3.20;;;;;;;13.08;100.00;102073.53;2056176;28;20679;-59
2022/10/24 00:28:38;;;;;;;8.63;3.30;;;;;;;13.02;100.00;102039.00;2055531;28;20456;-60
2022/10/24 00:29:39;;;;;;;6.17;3.10;;;;;;;13.05;100.00;102057.63;2055945;28;20433;-60
2022/10/24 00:30:39;;;;;;;5.33;3.10;;;;;;;13.02;100.00;102048.13;2055971;28;20429;-60
2022/10/24 00:31:40;;;;;;;7.53;3.67;;;;;;;12.99;100.00;102053.75;2056285;28;20199;-59
2022/10/24 00:32:41;;;;;;;5.43;2.80;;;;;;;12.99;100.00;102056.53;2056749;28;20214;-59
2022/10/24 00:33:43;;;;;;;5.63;2.90;;;;;;;13.00;100.00;102049.75;2055711;28;20460;-59
2022/10/24 00:34:43;;;;;;;4.53;2.73;;;;;;;12.97;100.00;102045.03;2056707;28;20199;-59
2022/10/24 00:35:44;;;;;;;5.70;2.60;;;;;;;12.31;100.00;101941.59;2055865;28;20455;-60
2022/10/24 00:36:44;;;;;;;7.43;3.23;;;;;;;12.93;100.00;102042.25;2056372;28;20195;-59
2022/10/24 00:37:45;;;;;;;4.80;3.03;;;;;;;12.92;100.00;102037.09;2056517;28;20939;-60
2022/10/24 00:38:46;;;;;;;4.57;2.53;;;;;;;12.90;100.00;102036.69;2056246;28;20194;-60
2022/10/24 00:39:46;;;;;;;4.73;3.07;;;;;;;12.37;100.00;101955.84;2056160;28;20195;-60
2022/10/24 00:40:46;;;;;;;9.43;4.30;;;;;;;12.74;100.00;102020.59;2056445;28;20177;-59
2022/10/24 00:41:47;;;;;;;7.47;4.47;;;;;;;12.84;100.00;102041.94;2056482;28;20232;-60
2022/10/24 00:42:48;;;;;;;9.90;4.57;;;;;;;12.82;100.00;102036.00;2055892;28;20723;-60
2022/10/24 00:43:49;;;;;;;7.70;4.97;;;;;;;12.80;100.00;102040.41;2055655;28;20216;-59
2022/10/24 00:44:52;;;;;;;8.80;5.10;;;;;;;12.83;100.00;102045.13;2056184;28;20451;-60
2022/10/24 00:46:03;;;;;;;11.10;5.73;;;;;;;12.86;100.00;102031.19;2055604;28;20220;-60
2022/10/24 00:47:10;;;;;;;8.17;4.80;;;;;;;12.82;100.00;102035.22;2055403;28;20488;-60
2022/10/24 00:48:32;;;;;;;10.33;5.47;;;;;;;12.84;100.00;102041.16;2055221;28;20998;-60
2022/10/24 00:49:54;;;;;;;9.87;5.33;;;;;;;12.88;100.00;102036.34;2055314;28;20451;-60
2022/10/24 00:50:59;;;;;;;8.53;5.17;;;;;;;12.89;100.00;102043.47;2055350;28;20487;-60
2022/10/24 00:52:03;;;;;;;8.37;4.93;;;;;;;12.91;100.00;102039.06;2055937;28;20529;-60
2022/10/24 00:53:04;;;;;;;10.43;4.80;;;;;;;12.94;100.00;102035.47;2056131;28;20484;-60
2022/10/24 00:54:09;;;;;;;8.00;3.90;;;;;;;13.00;100.00;102044.19;2056161;28;20450;-59
2022/10/24 00:55:10;;;;;;;6.00;3.90;;;;;;;12.99;100.00;102046.19;2056241;28;20194;-60
2022/10/24 00:56:13;;;;;;;6.57;3.80;;;;;;;13.03;100.00;102035.81;2054441;28;20463;-60
2022/10/24 00:57:26;;;;;;;6.10;4.00;;;;;;;13.04;100.00;102034.59;2056194;28;20459;-60
2022/10/24 00:58:29;;;;;;;7.63;4.90;;;;;;;13.05;100.00;102038.97;2055981;28;20425;-60
2022/10/24 00:59:32;;;;;;;7.50;5.20;;;;;;;13.05;100.00;102036.19;2055976;28;20816;-60
2022/10/24 01:00:33;;;;;;;6.30;4.57;;;;;;;13.05;100.00;102047.31;2055484;28;21416;-60
2022/10/24 01:01:34;;;;;;;9.23;4.83;;;;;;;13.11;100.00;102037.28;2055973;28;20893;-60
2022/10/24 01:02:36;;;;;;;7.53;4.43;;;;;;;13.13;100.00;102032.13;2056526;28;20647;-60
2022/10/24 01:03:37;;;;;;;7.13;4.23;;;;;;;12.84;100.00;101991.88;2055887;28;20449;-60
2022/10/24 01:04:37;;;;;;;9.23;4.27;;;;;;;12.54;100.00;101932.59;2056032;28;20446;-60
2022/10/24 01:06:08;;;;;;;5.10;4.10;;;;;;;12.88;100.00;101989.03;2055889;28;20572;-60
2022/10/24 01:07:17;;;;;;;5.57;4.00;;;;;;;13.13;100.00;102023.78;2056455;28;20184;-60
2022/10/24 01:08:32;;;;;;;6.60;4.17;;;;;;;13.16;100.00;102034.06;2055911;28;20451;-60
2022/10/24 01:09:54;;;;;;;10.43;4.17;;;;;;;13.14;100.00;102022.56;2053999;28;20419;-60
2022/10/24 01:11:15;;;;;;;6.57;4.30;;;;;;;13.16;100.00;102025.69;2056140;28;20464;-59
2022/10/24 01:12:57;;;;;;;6.70;4.10;;;;;;;12.31;100.00;101901.88;2056181;28;20419;-60
2022/10/24 01:14:29;;;;;;;9.47;3.93;;;;;;;13.13;100.00;102040.47;2055116;28;20453;-60
2022/10/24 01:15:52;;;;;;;7.37;4.50;;;;;;;13.13;100.00;102043.25;2055816;28;20497;-60
2022/10/24 01:17:16;;;;;;;9.20;4.60;;;;;;;13.15;100.00;102040.03;2055960;28;20927;-60
2022/10/24 01:18:57;;;;;;;4.67;3.10;;;;;;;13.15;100.00;102040.03;2055741;28;20842;-60
2022/10/24 01:20:15;;;;;;;4.97;3.30;;;;;;;13.16;100.00;102044.41;2055197;28;20422;-60
2022/10/24 01:21:31;;;;;;;5.03;3.13;;;;;;;13.04;100.00;102022.66;2056167;28;20417;-60
2022/10/24 01:23:30;;;;;;;6.50;3.60;;;;;;;13.18;100.00;102039.22;2055064;28;20419;-60
2022/10/24 01:24:54;;;;;;;7.73;3.23;;;;;;;13.12;100.00;102035.31;2027089;29;20501;-60
2022/10/24 01:26:12;;;;;;;6.67;3.10;;;;;;;12.45;100.00;101935.88;2030439;29;20466;-59
2022/10/24 01:27:32;;;;;;;8.00;3.53;;;;;;;13.05;100.00;102035.38;2031437;29;20433;-60
2022/10/24 01:28:39;;;;;;;8.23;3.97;;;;;;;13.06;100.00;102037.75;2031064;29;20987;-60
2022/10/24 01:29:45;;;;;;;8.73;3.67;;;;;;;13.06;100.00;102043.31;2030805;29;20705;-60
2022/10/24 01:30:56;;;;;;;9.23;3.63;;;;;;;13.02;100.00;102045.34;2056208;28;20450;-60
2022/10/24 01:32:14;;;;;;;9.93;3.80;;;;;;;12.99;100.00;102042.59;2055704;28;20455;-59
2022/10/24 01:33:19;;;;;;;8.60;3.90;;;;;;;13.00;100.00;102041.41;2056093;28;20494;-60
2022/10/24 01:34:36;;;;;;;10.97;4.27;;;;;;;12.53;100.00;101964.41;2053509;28;20449;-60
2022/10/24 01:35:46;;;;;;;9.27;3.97;;;;;;;13.01;100.00;102040.97;2055306;28;20841;-60
2022/10/24 01:36:52;;;;;;;9.67;4.27;;;;;;;13.01;100.00;102043.00;2055956;28;20446;-59
2022/10/24 01:38:02;;;;;;;12.40;4.17;;;;;;;13.02;100.00;102037.00;2055448;28;20442;-60
2022/10/24 01:39:08;;;;;;;8.37;3.83;;;;;;;13.02;100.00;102028.66;2056094;28;20454;-60
2022/10/24 01:40:16;;;;;;;6.33;3.97;;;;;;;12.15;100.00;101890.53;2054613;28;20930;-60
2022/10/24 01:41:20;;;;;;;9.93;4.00;;;;;;;13.01;100.00;102031.88;2055794;28;20454;-60
2022/10/24 01:42:22;;;;;;;7.27;4.37;;;;;;;12.43;100.00;101941.06;2055579;28;20996;-60
2022/10/24 01:43:39;;;;;;;7.30;4.73;;;;;;;12.99;100.00;102037.84;2055675;28;20427;-60
2022/10/24 01:44:43;;;;;;;7.70;4.57;;;;;;;12.97;100.00;102029.09;2055242;28;20465;-60
2022/10/24 01:45:48;;;;;;;7.87;4.33;;;;;;;12.97;100.00;102026.31;2055966;28;20486;-59
2022/10/24 01:46:56;;;;;;;8.27;4.47;;;;;;;12.97;100.00;102031.09;2056044;28;20426;-60
2022/10/24 01:48:01;;;;;;;7.73;4.53;;;;;;;12.99;100.00;102023.13;2055523;28;20430;-60
2022/10/24 01:49:08;;;;;;;9.60;5.00;;;;;;;12.61;100.00;101960.34;2052547;28;20476;-60
2022/10/24 01:50:13;;;;;;;8.57;4.33;;;;;;;12.84;100.00;102004.97;2055157;28;20446;-60
2022/10/24 01:51:17;;;;;;;9.67;4.90;;;;;;;12.29;100.00;101924.53;2055653;28;20543;-60
2022/10/24 01:52:19;;;;;;;6.83;3.93;;;;;;;12.98;100.00;102019.56;2055586;28;20469;-59
2022/10/24 01:53:22;;;;;;;7.87;4.37;;;;;;;13.00;100.00;102028.28;2055490;28;20437;-59
2022/10/24 01:54:23;;;;;;;10.03;4.43;;;;;;;13.01;100.00;102024.28;2056025;28;20442;-60
2022/10/24 01:55:23;;;;;;;8.77;4.80;;;;;;;12.64;100.00;101968.66;2055196;28;20445;-60
2022/10/24 01:56:25;;;;;;;9.27;5.07;;;;;;;13.01;100.00;102046.56;2054066;28;20617;-60
2022/10/24 01:57:30;;;;;;;9.77;4.33;;;;;;;13.02;100.00;102025.84;2055322;28;20195;-60
2022/10/24 01:58:30;;;;;;;7.93;4.63;;;;;;;12.81;100.00;101991.91;2055483;28;20500;-60
2022/10/24 01:59:30;;;;;;;8.07;4.40;;;;;;;13.01;100.00;102032.63;2055565;28;20474;-59
2022/10/24 02:00:31;;;;;;;7.60;4.53;;;;;;;12.98;100.00;102018.78;2056098;28;20648;-60
2022/10/24 02:01:32;;;;;;;7.90;4.40;;;;;;;13.05;100.00;102025.03;2055810;28;20215;-60
2022/10/24 02:02:41;;;;;;;8.83;4.40;;;;;;;13.02;100.00;102030.66;2056164;28;20243;-60
2022/10/24 02:03:49;;;;;;;7.47;4.47;;;;;;;12.96;100.00;102033.09;2055751;28;20242;-60
2022/10/24 02:05:09;;;;;;;11.97;4.50;;;;;;;13.01;100.00;102037.44;2055631;28;20474;-60
2022/10/24 02:06:17;;;;;;;8.67;4.57;;;;;;;13.00;100.00;102036.63;2055588;28;20940;-59
2022/10/24 02:07:20;;;;;;;7.70;4.23;;;;;;;12.60;100.00;101961.56;2059148;28;20541;-60
2022/10/24 02:08:27;;;;;;;8.63;4.40;;;;;;;12.99;100.00;102035.06;2060722;28;20422;-60
2022/10/24 02:09:29;;;;;;;7.50;4.60;;;;;;;12.87;100.00;102029.97;2054826;28;20423;-59
2022/10/24 02:10:35;;;;;;;8.17;4.63;;;;;;;12.86;100.00;102038.75;2056024;28;20441;-60
2022/10/24 02:11:36;;;;;;;8.73;4.23;;;;;;;12.86;100.00;102039.53;2054712;28;20548;-59
2022/10/24 02:12:41;;;;;;;13.30;5.50;;;;;;;12.86;100.00;102041.53;2055752;28;20442;-60
2022/10/24 02:13:51;;;;;;;12.73;4.87;;;;;;;12.88;100.00;102048.28;2053408;28;20952;-60
2022/10/24 02:14:59;;;;;;;13.30;5.80;;;;;;;12.91;100.00;102039.06;2055977;28;20479;-60
2022/10/24 02:16:01;;;;;;;9.63;5.10;;;;;;;12.91;100.00;102043.88;2055955;28;20528;-62
2022/10/24 02:17:03;;;;;;;14.33;4.90;;;;;;;12.92;100.00;102040.66;2055704;28;20945;-62
2022/10/24 02:18:03;;;;;;;14.57;5.10;;;;;;;12.93;100.00;102036.69;2055511;28;20442;-62
2022/10/24 02:19:04;;;;;;;16.47;5.43;;;;;;;12.96;100.00;102040.66;2055647;28;20420;-62
2022/10/24 02:20:06;;;;;;;11.97;5.30;;;;;;;12.43;100.00;101949.41;2055893;28;20179;-62
2022/10/24 02:21:21;;;;;;;13.27;5.37;;;;;;;12.98;100.00;102035.47;2055753;28;20976;-62
2022/10/24 02:22:56;;;;;;;13.70;5.03;;;;;;;12.97;100.00;102029.09;2056017;28;20429;-62
2022/10/24 02:24:17;;;;;;;12.73;5.53;;;;;;;12.95;100.00;102030.69;2053302;28;20468;-62
2022/10/24 02:25:34;;;;;;;14.27;5.20;;;;;;;12.41;100.00;101949.03;2055575;28;21264;-62
2022/10/24 02:26:45;;;;;;;14.10;5.00;;;;;;;12.99;100.00;102028.69;2055885;28;20436;-62
2022/10/24 02:27:51;;;;;;;14.53;5.47;;;;;;;12.97;100.00;102031.88;2055546;28;20455;-62
2022/10/24 02:28:57;;;;;;;11.63;4.70;;;;;;;12.99;100.00;102025.91;2055728;28;20430;-62
2022/10/24 02:30:06;;;;;;;11.70;4.83;;;;;;;13.03;100.00;102026.66;2055615;28;20458;-62
2022/10/24 02:31:15;;;;;;;9.30;4.57;;;;;;;13.03;100.00;102043.34;2055679;28;20461;-62
2022/10/24 02:32:22;;;;;;;9.40;4.70;;;;;;;12.92;100.00;102023.97;2055431;28;20851;-61
2022/10/24 02:33:24;;;;;;;7.03;4.33;;;;;;;12.67;100.00;101969.81;2055426;28;20514;-62
2022/10/24 02:34:30;;;;;;;10.10;5.27;;;;;;;13.09;100.00;102041.69;2055729;28;20446;-61
2022/10/24 02:35:34;;;;;;;7.77;4.57;;;;;;;13.00;100.00;102019.94;2056435;28;20424;-62
2022/10/24 02:36:36;;;;;;;9.00;4.70;;;;;;;13.04;100.00;102040.16;2057289;28;20948;-61
2022/10/24 02:37:46;;;;;;;9.17;5.43;;;;;;;13.01;100.00;102040.97;2057200;28;21014;-62
2022/10/24 02:38:50;;;;;;;8.70;5.30;;;;;;;13.01;100.00;102045.78;2056737;28;20442;-61
2022/10/24 02:39:52;;;;;;;9.70;5.40;;;;;;;13.04;100.00;102037.38;2057234;28;20442;-61
2022/10/24 02:40:54;;;;;;;12.60;5.73;;;;;;;13.08;100.00;102040.13;2056937;28;20424;-62
2022/10/24 02:41:56;;;;;;;16.30;5.60;;;;;;;13.11;100.00;102042.09;2057169;28;20460;-61
2022/10/24 02:42:58;;;;;;;11.93;4.97;;;;;;;13.03;100.00;102029.44;2057378;28;20429;-61
2022/10/24 02:44:00;;;;;;;11.77;5.40;;;;;;;12.97;100.00;102020.75;2057135;28;20422;-61
2022/10/24 02:45:02;;;;;;;8.83;5.23;;;;;;;13.11;100.00;102037.28;2057507;28;20841;-62
2022/10/24 02:46:03;;;;;;;7.57;4.87;;;;;;;13.12;100.00;102032.53;2057038;28;20448;-61
2022/10/24 02:47:06;;;;;;;9.00;4.70;;;;;;;13.15;100.00;102037.25;2057470;28;20495;-61
2022/10/24 02:48:11;;;;;;;11.47;4.87;;;;;;;13.03;100.00;102021.91;2055861;28;20806;-61
2022/10/24 02:49:12;;;;;;;16.67;5.13;;;;;;;13.15;100.00;102042.81;2056337;28;20451;-61
2022/10/24 02:50:13;;;;;;;12.67;4.83;;;;;;;12.86;100.00;101992.22;2056624;28;20485;-61
2022/10/24 02:51:16;;;;;;;14.67;5.37;;;;;;;13.00;100.00;102025.50;2056818;28;20238;-62
2022/10/24 02:52:16;;;;;;;10.90;4.90;;;;;;;13.17;100.00;102037.63;2056888;28;20270;-61
2022/10/24 02:53:20;;;;;;;16.13;5.37;;;;;;;13.18;100.00;102036.44;2057185;28;20431;-61
2022/10/24 02:54:20;;;;;;;10.77;4.83;;;;;;;12.48;100.00;101942.59;2057367;28;20196;-61
2022/10/24 02:55:21;;;;;;;11.50;5.23;;;;;;;13.20;100.00;102032.03;2057088;28;20449;-60
2022/10/24 02:56:22;;;;;;;16.90;5.17;;;;;;;13.19;100.00;102049.13;2056772;28;20188;-63
2022/10/24 02:57:23;;;;;;;16.83;6.07;;;;;;;13.18;100.00;102045.56;2056818;28;20202;-62
2022/10/24 02:58:24;;;;;;;11.77;5.00;;;;;;;13.18;100.00;102034.44;2056778;28;20230;-63
2022/10/24 02:59:25;;;;;;;22.33;6.00;;;;;;;12.58;100.00;101938.91;2056970;28;20457;-63
2022/10/24 03:00:25;;;;;;;18.87;6.60;;;;;;;12.76;100.00;101970.13;2057082;28;20222;-61
2022/10/24 03:01:26;;;;;;;26.90;7.40;;;;;;;13.21;100.00;102035.59;2056709;28;20317;-61
2022/10/24 03:02:26;;;;;;;32.03;8.27;;;;;;;13.19;100.00;102044.38;2054820;28;20272;-61
2022/10/24 03:03:27;;;;;;;21.90;7.73;;;;;;;13.11;100.00;102040.06;2056745;28;20571;-62
2022/10/24 03:04:27;;;;;;;31.83;8.67;;;;;;;13.17;100.00;102040.41;2057269;28;20218;-61
2022/10/24 03:05:27;;;;;;;28.27;8.00;;;;;;;13.21;100.00;102041.16;2056711;28;20188;-61
2022/10/24 03:06:28;;;;;;;21.07;7.37;;;;;;;13.08;100.00;102034.56;2056992;28;20543;-61
2022/10/24 03:07:28;;;;;;;23.13;7.30;;;;;;;13.16;100.00;102045.19;2056824;28;20176;-61
2022/10/24 03:08:29;;;;;;;20.93;7.57;;;;;;;13.16;100.00;102044.41;2056895;28;20553;-61
2022/10/24 03:09:29;;;;;;;15.73;7.17;;;;;;;13.14;100.00;102053.16;2056955;28;20184;-61
2022/10/24 03:10:30;;;;;;;27.80;7.53;;;;;;;13.13;100.00;102054.38;2056560;28;20191;-61
2022/10/24 03:11:30;;;;;;;17.17;6.50;;;;;;;13.16;100.00;102055.53;2056761;28;20445;-59
2022/10/24 03:12:31;;;;;;;13.57;6.10;;;;;;;13.14;100.00;102053.16;2057490;28;20187;-61
2022/10/24 03:13:31;;;;;;;14.53;6.20;;;;;;;12.65;100.00;101970.22;2056416;28;20180;-62
2022/10/24 03:14:32;;;;;;;9.60;5.80;;;;;;;13.18;100.00;102045.56;2057012;28;20202;-62
2022/10/24 03:15:32;;;;;;;12.23;4.73;;;;;;;13.15;100.00;102049.19;2056788;28;20202;-60
2022/10/24 03:16:33;;;;;;;11.33;5.10;;;;;;;13.04;100.00;102039.38;2056033;28;20633;-59
2022/10/24 03:17:33;;;;;;;15.40;5.80;;;;;;;13.09;100.00;102058.41;2056672;28;20272;-59
2022/10/24 03:18:34;;;;;;;11.13;5.43;;;;;;;13.12;100.00;102052.00;2056759;28;20184;-59
2022/10/24 03:19:34;;;;;;;15.80;6.60;;;;;;;13.16;100.00;102058.34;2056816;28;20184;-61
2022/10/24 03:20:35;;;;;;;12.60;5.70;;;;;;;13.17;100.00;102060.69;2057137;28;20657;-59
2022/10/24 03:21:35;;;;;;;8.30;4.77;;;;;;;13.18;100.00;102059.50;2055181;28;20209;-59
2022/10/24 03:22:36;;;;;;;7.73;5.03;;;;;;;13.23;100.00;102055.44;2057138;28;20187;-59
2022/10/24 03:23:36;;;;;;;7.00;4.93;;;;;;;12.91;100.00;102008.47;2056654;28;20662;-58
2022/10/24 03:24:37;;;;;;;13.13;5.00;;;;;;;13.24;100.00;102060.59;2056980;28;20187;-59
2022/10/24 03:25:37;;;;;;;10.40;4.80;;;;;;;12.76;100.00;101973.66;2056972;28;20735;-62
2022/10/24 03:26:37;;;;;;;15.73;5.50;;;;;;;13.29;100.00;102054.59;2057001;28;20221;-59
2022/10/24 03:27:38;;;;;;;10.73;5.07;;;;;;;13.31;100.00;102060.50;2056885;28;20267;-61
2022/10/24 03:28:38;;;;;;;12.10;5.13;;;;;;;13.33;100.00;102057.31;2056903;28;20175;-61
2022/10/24 03:29:39;;;;;;;15.23;5.30;;;;;;;13.35;100.00;102058.47;2056614;28;20199;-60
2022/10/24 03:30:39;;;;;;;9.23;4.90;;;;;;;13.35;100.00;102060.47;2056782;28;20180;-60
2022/10/24 03:31:40;;;;;;;11.57;5.07;;;;;;;13.05;100.00;102024.25;2056513;28;20249;-60
2022/10/24 03:32:40;;;;;;;12.43;4.93;;;;;;;13.33;100.00;102060.88;2057022;28;20190;-61
2022/10/24 03:33:41;;;;;;;12.07;4.40;;;;;;;13.30;100.00;102050.59;2055849;28;20205;-61
2022/10/24 03:34:41;;;;;;;7.70;4.83;;;;;;;12.67;100.00;101947.56;2056962;28;20179;-61
2022/10/24 03:35:42;;;;;;;8.83;5.00;;;;;;;12.84;100.00;101972.41;2056724;28;20186;-61
2022/10/24 03:36:42;;;;;;;7.50;4.53;;;;;;;13.40;100.00;102062.78;2057042;28;20646;-59
2022/10/24 03:37:43;;;;;;;10.07;5.03;;;;;;;13.42;100.00;102065.97;2056781;28;20214;-60
2022/10/24 03:38:43;;;;;;;10.40;4.90;;;;;;;13.41;100.00;102067.94;2055625;28;20184;-61
2022/10/24 03:39:44;;;;;;;7.93;5.07;;;;;;;13.41;100.00;102065.16;2056662;28;20193;-60
2022/10/24 03:40:45;;;;;;;10.50;4.77;;;;;;;13.44;100.00;102061.56;2056665;28;20206;-61
2022/10/24 03:41:45;;;;;;;8.43;4.70;;;;;;;13.47;100.00;102068.28;2056663;28;20187;-61
2022/10/24 03:42:46;;;;;;;7.83;4.40;;;;;;;13.46;100.00;102067.47;2056684;28;20639;-61
2022/10/24 03:43:46;;;;;;;7.03;4.27;;;;;;;13.45;100.00;102067.91;2056408;28;20191;-60
2022/10/24 03:44:47;;;;;;;6.93;4.00;;;;;;;12.88;100.00;101975.13;2056379;28;20207;-61
2022/10/24 03:45:47;;;;;;;10.53;4.80;;;;;;;13.48;100.00;102069.84;2055162;28;20739;-60
2022/10/24 03:46:47;;;;;;;9.00;4.77;;;;;;;13.51;100.00;102071.78;2056373;28;20275;-61
2022/10/24 03:47:48;;;;;;;6.83;4.17;;;;;;;13.51;100.00;102067.03;2056020;28;20580;-61
2022/10/24 03:48:48;;;;;;;8.37;3.93;;;;;;;13.53;100.00;102066.63;2056816;28;20187;-61
2022/10/24 03:49:49;;;;;;;7.63;4.30;;;;;;;13.51;100.00;102074.56;2056593;28;20195;-60
2022/10/24 03:50:49;;;;;;;11.70;4.77;;;;;;;13.55;100.00;102069.75;2056612;28;20779;-60
2022/10/24 03:51:49;;;;;;;12.23;4.87;;;;;;;13.08;100.00;101985.25;2056083;28;20238;-60
2022/10/24 03:52:50;;;;;;;9.60;4.67;;;;;;;13.63;100.00;102069.25;2056288;28;20189;-60
2022/10/24 03:53:50;;;;;;;10.63;4.27;;;;;;;13.66;100.00;102073.19;2056211;28;20195;-61
2022/10/24 03:54:51;;;;;;;9.10;4.50;;;;;;;13.69;100.00;102064.00;2056595;28;20192;-61
2022/10/24 03:55:51;;;;;;;10.53;5.13;;;;;;;13.71;100.00;102069.94;2056875;28;20217;-60
2022/10/24 03:56:52;;;;;;;22.67;5.20;;;;;;;13.50;100.00;102036.78;2056564;28;20225;-60
2022/10/24 03:57:52;;;;;;;10.80;5.00;;;;;;;13.72;100.00;102068.72;2056465;28;20223;-60
2022/10/24 03:58:53;;;;;;;9.00;4.93;;;;;;;13.73;100.00;102073.09;2056380;28;20561;-60
2022/10/24 03:59:53;;;;;;;10.70;4.80;;;;;;;13.67;100.00;102058.84;2055918;28;20236;-60
2022/10/24 04:00:57;;;;;;;8.00;4.77;;;;;;;13.57;100.00;102057.00;2056261;28;20257;-59
2022/10/24 04:01:59;;;;;;;7.57;4.27;;;;;;;13.69;100.00;102062.00;2053592;28;21674;-60
2022/10/24 04:03:00;;;;;;;11.10;4.60;;;;;;;13.80;100.00;102073.00;2055397;28;20457;-60
2022/10/24 04:04:01;;;;;;;9.57;4.80;;;;;;;13.80;100.00;102065.44;2056218;28;20453;-60
2022/10/24 04:05:02;;;;;;;12.27;4.60;;;;;;;13.43;100.00;102014.63;2056174;28;20200;-61
2022/10/24 04:06:02;;;;;;;9.87;4.50;;;;;;;13.83;100.00;102070.16;2056222;28;21009;-60
2022/10/24 04:07:04;;;;;;;9.43;4.93;;;;;;;13.83;100.00;102080.53;2055786;28;20197;-60
2022/10/24 04:08:05;;;;;;;11.37;4.80;;;;;;;13.88;100.00;102082.84;2055778;28;20192;-60
2022/10/24 04:09:06;;;;;;;10.33;4.47;;;;;;;13.89;100.00;102079.63;2055801;28;20440;-61
2022/10/24 04:10:07;;;;;;;11.90;4.33;;;;;;;13.72;100.00;102061.16;2056247;28;20426;-61
2022/10/24 04:11:07;;;;;;;11.93;4.43;;;;;;;13.93;100.00;102077.56;2055779;28;20206;-61
2022/10/24 04:12:08;;;;;;;12.47;4.90;;;;;;;13.96;100.00;102076.75;2055622;28;20200;-60
2022/10/24 04:13:08;;;;;;;12.67;4.67;;;;;;;13.98;100.00;102081.91;2055669;28;20193;-61
2022/10/24 04:14:09;;;;;;;12.17;4.50;;;;;;;13.99;100.00;102081.47;2054735;28;20286;-60
2022/10/24 04:15:10;;;;;;;12.33;4.37;;;;;;;14.00;100.00;102077.50;2057207;28;20605;-59
2022/10/24 04:16:10;;;;;;;12.33;3.87;;;;;;;13.86;100.00;102062.94;2056059;28;20185;-60
2022/10/24 04:17:10;;;;;;;11.33;4.70;;;;;;;14.05;100.00;102079.81;2055140;28;21557;-59
2022/10/24 04:18:11;;;;;;;11.83;4.00;;;;;;;13.95;100.00;102061.25;2056703;28;20678;-62
2022/10/24 04:19:11;;;;;;;10.73;4.63;;;;;;;14.06;100.00;102078.59;2056647;28;20280;-73
2022/10/24 04:20:12;;;;;;;12.03;4.87;;;;;;;14.08;100.00;102075.38;2054860;28;20193;-63
2022/10/24 04:21:13;;;;;;;14.03;4.43;;;;;;;14.13;100.00;102080.47;2055054;28;20198;-60
2022/10/24 04:22:13;;;;;;;13.03;4.20;;;;;;;14.12;100.00;102081.69;2055208;28;20276;-60
2022/10/24 04:23:13;;;;;;;8.93;4.10;;;;;;;14.11;100.00;102080.91;2057120;28;20271;-60
2022/10/24 04:24:14;;;;;;;10.40;4.37;;;;;;;14.11;100.00;102078.13;2057554;28;20255;-61
2022/10/24 04:25:16;;;;;;;9.37;4.43;;;;;;;14.11;100.00;102085.69;2055824;28;20189;-62
2022/10/24 04:26:17;;;;;;;16.40;6.10;;;;;;;13.39;100.00;101977.69;2054514;28;20201;-64
2022/10/24 04:27:18;;;;;;;10.47;5.10;;;;;;;14.15;100.00;102081.63;2054760;28;20949;-62
2022/10/24 04:28:18;;;;;;;7.07;4.30;;;;;;;14.17;100.00;102090.38;2055249;28;20493;-62
2022/10/24 04:29:19;;;;;;;6.87;3.63;;;;;;;13.45;100.00;101976.78;2055707;28;20190;-62
2022/10/24 04:30:19;;;;;;;6.30;3.40;;;;;;;14.16;100.00;102082.41;2055362;28;20197;-62
2022/10/24 04:31:20;;;;;;;6.13;3.60;;;;;;;14.16;100.00;102088.00;2055486;28;20200;-67
2022/10/24 04:32:20;;;;;;;5.93;3.80;;;;;;;13.60;100.00;101996.88;2055721;28;20200;-66
2022/10/24 04:33:21;;;;;;;11.57;6.23;;;;;;;14.10;100.00;102084.88;2054591;28;20227;-66
2022/10/24 04:34:21;;;;;;;17.20;7.23;;;;;;;14.06;100.00;102088.94;2056856;28;20189;-63
2022/10/24 04:35:23;;;;;;;12.80;5.77;;;;;;;13.99;100.00;102063.97;2056781;28;20731;-63
2022/10/24 04:36:23;;;;;;;16.17;5.83;;;;;;;14.01;100.00;102072.69;2051494;28;20297;-63
2022/10/24 04:37:24;;;;;;;10.33;5.60;;;;;;;14.05;100.00;102073.44;2053254;28;20930;-62
2022/10/24 04:38:24;;;;;;;11.60;6.07;;;;;;;14.03;100.00;102079.41;2053185;28;20248;-62
2022/10/24 04:39:25;;;;;;;11.50;6.03;;;;;;;14.01;100.00;102081.06;2054621;28;20197;-63
2022/10/24 04:40:25;;;;;;;9.33;5.83;;;;;;;14.01;100.00;102081.06;2053358;28;20211;-62
2022/10/24 04:41:26;;;;;;;8.33;5.47;;;;;;;13.86;100.00;102066.53;2054211;28;20213;-65
2022/10/24 04:42:26;;;;;;;8.27;4.80;;;;;;;13.97;100.00;102078.31;2054970;28;20327;-63
2022/10/24 04:43:26;;;;;;;9.43;6.27;;;;;;;13.95;100.00;102069.59;2043029;28;20248;-63
2022/10/24 04:44:27;;;;;;;8.80;5.63;;;;;;;13.90;100.00;102070.06;2049255;28;20325;-63
2022/10/24 04:45:27;;;;;;;7.47;5.50;;;;;;;13.94;100.00;102087.50;2049822;28;20192;-63
2022/10/24 04:46:28;;;;;;;7.20;5.57;;;;;;;13.91;100.00;102082.78;2045892;28;20705;-64
2022/10/24 04:47:28;;;;;;;6.50;5.37;;;;;;;13.79;100.00;102061.06;2051140;28;20193;-63
2022/10/24 04:48:29;;;;;;;8.93;6.47;;;;;;;13.62;100.00;102039.81;2049677;28;20205;-62
2022/10/24 04:49:29;;;;;;;9.43;5.87;;;;;;;13.80;100.00;102070.22;2049186;28;20742;-63
2022/10/24 04:50:30;;;;;;;9.43;5.00;;;;;;;13.86;100.00;102077.69;2051952;28;20262;-63
2022/10/24 04:51:30;;;;;;;11.57;5.50;;;;;;;13.24;100.00;101974.31;2048093;28;20450;-61
2022/10/24 04:52:31;;;;;;;15.07;7.23;;;;;;;13.88;100.00;102077.28;2045693;28;20195;-63